createdAt,value
2018-07-16T00:00:49.624Z,18.76
2018-07-16T00:01:49.618Z,18.79
2018-07-16T00:02:49.608Z,18.62
2018-07-16T00:03:49.598Z,18.65
2018-07-16T00:04:49.587Z,18.66
2018-07-16T00:05:49.580Z,18.69
2018-07-16T00:06:49.569Z,18.60
2018-07-16T00:07:49.560Z,18.59
2018-07-16T00:08:49.554Z,18.62
2018-07-16T00:09:49.541Z,18.66
2018-07-16T00:10:49.681Z,18.50
2018-07-16T00:11:49.522Z,18.50
2018-07-16T00:12:49.513Z,18.47
2018-07-16T00:13:49.504Z,18.47
2018-07-16T00:14:49.494Z,18.50
2018-07-16T00:15:49.484Z,18.42
2018-07-16T00:16:49.477Z,18.44
2018-07-16T00:17:49.469Z,18.47
2018-07-16T00:18:49.457Z,18.44
2018-07-16T00:19:49.448Z,18.39
2018-07-16T00:20:49.439Z,18.39
2018-07-16T00:21:49.430Z,18.41
2018-07-16T00:22:49.418Z,18.42
2018-07-16T00:23:49.408Z,18.39
2018-07-16T00:24:49.399Z,18.46
2018-07-16T00:25:49.390Z,18.42
2018-07-16T00:26:49.380Z,18.41
2018-07-16T00:27:49.373Z,18.32
2018-07-16T00:28:49.408Z,18.34
2018-07-16T00:29:49.353Z,18.38
2018-07-16T00:30:49.342Z,18.39
2018-07-16T00:31:49.335Z,18.39
2018-07-16T00:32:49.325Z,18.36
2018-07-16T00:33:49.314Z,18.38
2018-07-16T00:34:49.309Z,18.39
2018-07-16T00:35:49.301Z,18.34
2018-07-16T00:36:49.285Z,18.38
2018-07-16T00:37:49.277Z,18.36
2018-07-16T00:38:49.267Z,18.39
2018-07-16T00:39:49.258Z,18.44
2018-07-16T00:40:49.449Z,18.38
2018-07-16T00:41:49.241Z,18.39
2018-07-16T00:42:49.227Z,18.42
2018-07-16T00:43:49.220Z,18.39
2018-07-16T00:44:49.209Z,18.41
2018-07-16T00:45:49.201Z,18.38
2018-07-16T00:46:49.197Z,18.39
2018-07-16T00:47:49.184Z,18.46
2018-07-16T00:48:49.180Z,18.38
2018-07-16T00:49:49.163Z,18.32
2018-07-16T00:50:49.154Z,18.32
2018-07-16T00:51:49.145Z,18.23
2018-07-16T00:52:49.142Z,18.20
2018-07-16T00:53:49.125Z,18.19
2018-07-16T00:54:49.113Z,18.20
2018-07-16T00:55:49.133Z,18.23
2018-07-16T00:56:49.097Z,18.23
2018-07-16T00:57:49.091Z,18.21
2018-07-16T00:58:49.076Z,18.20
2018-07-16T00:59:49.065Z,18.19
2018-07-16T01:00:49.055Z,18.19
2018-07-16T01:01:49.046Z,18.29
2018-07-16T01:02:49.045Z,18.26
2018-07-16T01:03:49.027Z,18.28
2018-07-16T01:04:49.035Z,18.23
2018-07-16T01:05:49.009Z,18.26
2018-07-16T01:06:48.999Z,18.20
2018-07-16T01:07:48.994Z,18.17
2018-07-16T01:08:48.983Z,18.19
2018-07-16T01:09:48.975Z,18.10
2018-07-16T01:10:48.964Z,18.16
2018-07-16T01:11:48.951Z,18.17
2018-07-16T01:12:48.940Z,18.11
2018-07-16T01:13:48.929Z,18.16
2018-07-16T01:14:48.923Z,18.09
2018-07-16T01:15:48.911Z,17.98
2018-07-16T01:16:48.904Z,17.99
2018-07-16T01:17:48.895Z,17.89
2018-07-16T01:18:48.881Z,17.87
2018-07-16T01:19:48.869Z,17.81
2018-07-16T01:20:48.866Z,17.86
2018-07-16T01:21:48.857Z,17.83
2018-07-16T01:22:48.848Z,17.87
2018-07-16T01:23:48.834Z,17.89
2018-07-16T01:24:48.820Z,17.89
2018-07-16T01:25:48.813Z,17.92
2018-07-16T01:26:48.806Z,17.84
2018-07-16T01:27:48.797Z,17.83
2018-07-16T01:28:48.982Z,17.86
2018-07-16T01:29:48.776Z,17.77
2018-07-16T01:30:48.765Z,17.83
2018-07-16T01:31:48.758Z,17.80
2018-07-16T01:32:48.746Z,17.81
2018-07-16T01:33:48.741Z,17.79
2018-07-16T01:34:48.721Z,17.87
2018-07-16T01:35:48.716Z,17.83
2018-07-16T01:36:48.705Z,17.70
2018-07-16T01:37:48.694Z,17.74
2018-07-16T01:38:48.681Z,17.70
2018-07-16T01:39:48.693Z,17.70
2018-07-16T01:40:48.661Z,17.68
2018-07-16T01:41:48.652Z,17.58
2018-07-16T01:42:48.642Z,17.57
2018-07-16T01:43:48.635Z,17.54
2018-07-16T01:44:48.623Z,17.54
2018-07-16T01:45:48.611Z,17.54
2018-07-16T01:46:48.601Z,17.46
2018-07-16T01:47:48.592Z,17.49
2018-07-16T01:48:48.581Z,17.47
2018-07-16T01:49:48.574Z,17.49
2018-07-16T01:50:48.561Z,17.51
2018-07-16T01:51:48.550Z,17.47
2018-07-16T01:52:48.546Z,17.46
2018-07-16T01:53:48.537Z,17.53
2018-07-16T01:54:48.519Z,17.55
2018-07-16T01:55:48.516Z,17.47
2018-07-16T01:56:48.500Z,17.54
2018-07-16T01:57:48.492Z,17.45
2018-07-16T01:58:48.480Z,17.51
2018-07-16T01:59:48.473Z,17.49
2018-07-16T02:00:48.460Z,17.47
2018-07-16T02:01:48.466Z,17.47
2018-07-16T02:02:48.441Z,17.47
2018-07-16T02:03:48.437Z,17.42
2018-07-16T02:04:48.418Z,17.39
2018-07-16T02:05:48.408Z,17.36
2018-07-16T02:06:48.400Z,17.36
2018-07-16T02:07:48.388Z,17.40
2018-07-16T02:08:48.386Z,17.35
2018-07-16T02:09:48.367Z,17.36
2018-07-16T02:10:48.360Z,17.33
2018-07-16T02:11:48.349Z,17.39
2018-07-16T02:12:48.338Z,17.36
2018-07-16T02:13:48.326Z,17.38
2018-07-16T02:14:48.324Z,17.42
2018-07-16T02:15:48.307Z,17.32
2018-07-16T02:16:48.295Z,17.27
2018-07-16T02:17:48.288Z,17.15
2018-07-16T02:18:48.275Z,17.10
2018-07-16T02:19:48.264Z,17.27
2018-07-16T02:20:48.253Z,17.21
2018-07-16T02:21:48.243Z,17.21
2018-07-16T02:22:48.443Z,17.14
2018-07-16T02:23:48.224Z,17.18
2018-07-16T02:24:48.212Z,17.17
2018-07-16T02:25:48.203Z,17.18
2018-07-16T02:26:48.190Z,17.17
2018-07-16T02:27:48.187Z,17.10
2018-07-16T02:28:48.373Z,17.14
2018-07-16T02:29:48.162Z,17.03
2018-07-16T02:30:48.152Z,17.02
2018-07-16T02:31:48.141Z,16.98
2018-07-16T02:32:48.130Z,17.06
2018-07-16T02:33:48.129Z,17.12
2018-07-16T02:34:48.108Z,17.15
2018-07-16T02:35:48.099Z,17.06
2018-07-16T02:36:48.089Z,17.02
2018-07-16T02:37:48.084Z,17.10
2018-07-16T02:38:48.065Z,17.07
2018-07-16T02:39:48.057Z,17.12
2018-07-16T02:40:48.046Z,17.05
2018-07-16T02:41:48.038Z,17.03
2018-07-16T02:42:48.027Z,17.09
2018-07-16T02:43:48.015Z,17.17
2018-07-16T02:44:48.005Z,17.15
2018-07-16T02:45:47.993Z,17.10
2018-07-16T02:46:47.983Z,17.15
2018-07-16T02:47:47.980Z,17.10
2018-07-16T02:48:47.961Z,17.03
2018-07-16T02:49:47.952Z,16.99
2018-07-16T02:50:47.942Z,16.98
2018-07-16T02:51:47.939Z,16.92
2018-07-16T02:52:47.921Z,17.00
2018-07-16T02:53:47.917Z,16.90
2018-07-16T02:54:47.898Z,16.84
2018-07-16T02:55:47.892Z,16.91
2018-07-16T02:56:47.879Z,16.77
2018-07-16T02:57:47.871Z,16.75
2018-07-16T02:58:47.858Z,16.77
2018-07-16T02:59:47.844Z,16.73
2018-07-16T03:00:47.841Z,16.72
2018-07-16T03:01:47.826Z,16.77
2018-07-16T03:02:47.815Z,16.82
2018-07-16T03:03:47.803Z,16.81
2018-07-16T03:04:47.799Z,16.77
2018-07-16T03:05:47.781Z,16.70
2018-07-16T03:06:47.773Z,16.77
2018-07-16T03:07:47.761Z,16.80
2018-07-16T03:08:47.750Z,16.81
2018-07-16T03:09:47.738Z,16.84
2018-07-16T03:10:47.727Z,16.82
2018-07-16T03:11:47.723Z,16.82
2018-07-16T03:12:47.713Z,16.87
2018-07-16T03:13:47.695Z,16.90
2018-07-16T03:14:47.684Z,16.82
2018-07-16T03:15:47.687Z,16.85
2018-07-16T03:16:47.865Z,16.85
2018-07-16T03:17:47.660Z,16.84
2018-07-16T03:18:47.648Z,16.82
2018-07-16T03:19:47.631Z,16.77
2018-07-16T03:20:47.623Z,16.72
2018-07-16T03:21:47.618Z,16.66
2018-07-16T03:22:47.604Z,16.75
2018-07-16T03:23:47.593Z,16.66
2018-07-16T03:24:47.583Z,16.73
2018-07-16T03:25:47.571Z,16.80
2018-07-16T03:26:47.554Z,16.82
2018-07-16T03:27:47.547Z,16.87
2018-07-16T03:28:47.536Z,16.88
2018-07-16T03:29:47.527Z,16.82
2018-07-16T03:30:47.512Z,16.78
2018-07-16T03:31:47.505Z,16.75
2018-07-16T03:32:47.500Z,16.72
2018-07-16T03:33:47.480Z,16.72
2018-07-16T03:34:47.470Z,16.75
2018-07-16T03:35:47.460Z,16.66
2018-07-16T03:36:47.447Z,16.60
2018-07-16T03:37:47.439Z,16.63
2018-07-16T03:38:47.426Z,16.69
2018-07-16T03:39:47.417Z,16.67
2018-07-16T03:40:47.605Z,16.67
2018-07-16T03:41:47.395Z,16.65
2018-07-16T03:42:47.382Z,16.78
2018-07-16T03:43:47.377Z,16.73
2018-07-16T03:44:47.362Z,16.80
2018-07-16T03:45:47.356Z,16.73
2018-07-16T03:46:47.344Z,16.72
2018-07-16T03:47:47.328Z,16.69
2018-07-16T03:48:47.318Z,16.72
2018-07-16T03:49:47.316Z,16.77
2018-07-16T03:50:47.298Z,16.78
2018-07-16T03:51:47.287Z,16.70
2018-07-16T03:52:47.274Z,16.70
2018-07-16T03:53:47.264Z,16.78
2018-07-16T03:54:47.253Z,16.78
2018-07-16T03:55:47.280Z,16.77
2018-07-16T03:56:47.244Z,16.80
2018-07-16T03:57:47.221Z,16.78
2018-07-16T03:58:47.208Z,16.78
2018-07-16T03:59:47.198Z,16.63
2018-07-16T04:00:47.188Z,16.63
2018-07-16T04:01:47.178Z,16.63
2018-07-16T04:02:47.166Z,16.59
2018-07-16T04:03:47.154Z,16.55
2018-07-16T04:04:47.344Z,16.55
2018-07-16T04:05:47.133Z,16.55
2018-07-16T04:06:47.122Z,16.50
2018-07-16T04:07:47.111Z,16.62
2018-07-16T04:08:47.100Z,16.55
2018-07-16T04:09:47.090Z,16.50
2018-07-16T04:10:47.078Z,16.42
2018-07-16T04:11:47.067Z,16.40
2018-07-16T04:12:47.056Z,16.41
2018-07-16T04:13:47.045Z,16.40
2018-07-16T04:14:47.034Z,16.37
2018-07-16T04:15:47.023Z,16.48
2018-07-16T04:16:47.012Z,16.34
2018-07-16T04:17:47.001Z,16.37
2018-07-16T04:18:46.989Z,16.36
2018-07-16T04:19:46.979Z,16.30
2018-07-16T04:20:46.968Z,16.27
2018-07-16T04:21:46.990Z,16.25
2018-07-16T04:22:46.945Z,16.29
2018-07-16T04:23:46.934Z,16.32
2018-07-16T04:24:46.924Z,16.34
2018-07-16T04:25:46.912Z,16.36
2018-07-16T04:26:46.904Z,16.26
2018-07-16T04:27:46.889Z,16.25
2018-07-16T04:28:46.878Z,16.27
2018-07-16T04:29:46.867Z,16.26
2018-07-16T04:30:46.869Z,16.36
2018-07-16T04:31:46.846Z,16.25
2018-07-16T04:32:46.835Z,16.30
2018-07-16T04:33:46.824Z,16.40
2018-07-16T04:34:46.812Z,16.40
2018-07-16T04:35:46.800Z,16.30
2018-07-16T04:36:46.789Z,16.23
2018-07-16T04:37:46.778Z,16.13
2018-07-16T04:38:46.766Z,16.16
2018-07-16T04:39:46.827Z,16.22
2018-07-16T04:40:46.744Z,16.08
2018-07-16T04:41:46.733Z,16.18
2018-07-16T04:42:46.721Z,16.17
2018-07-16T04:43:46.710Z,16.10
2018-07-16T04:44:46.701Z,16.26
2018-07-16T04:45:46.689Z,16.18
2018-07-16T04:46:46.676Z,16.18
2018-07-16T04:47:46.665Z,16.27
2018-07-16T04:48:46.654Z,16.23
2018-07-16T04:49:46.643Z,16.26
2018-07-16T04:50:46.638Z,16.25
2018-07-16T04:51:46.620Z,16.16
2018-07-16T04:52:46.609Z,16.13
2018-07-16T04:53:46.598Z,16.23
2018-07-16T04:54:46.586Z,16.14
2018-07-16T04:55:46.575Z,16.16
2018-07-16T04:56:46.564Z,16.14
2018-07-16T04:57:46.553Z,16.27
2018-07-16T04:58:46.541Z,16.23
2018-07-16T04:59:46.530Z,16.13
2018-07-16T05:00:46.519Z,16.07
2018-07-16T05:01:46.508Z,16.07
2018-07-16T05:02:46.499Z,16.06
2018-07-16T05:03:46.484Z,15.88
2018-07-16T05:04:46.473Z,15.89
2018-07-16T05:05:46.462Z,15.96
2018-07-16T05:06:46.451Z,16.06
2018-07-16T05:07:46.440Z,16.03
2018-07-16T05:08:46.428Z,15.98
2018-07-16T05:09:46.417Z,15.93
2018-07-16T05:10:46.406Z,15.86
2018-07-16T05:11:46.393Z,15.89
2018-07-16T05:12:46.382Z,15.85
2018-07-16T05:13:46.371Z,15.86
2018-07-16T05:14:46.359Z,15.86
2018-07-16T05:15:46.348Z,15.89
2018-07-16T05:16:46.537Z,15.86
2018-07-16T05:17:46.329Z,15.89
2018-07-16T05:18:46.313Z,16.04
2018-07-16T05:19:46.302Z,15.98
2018-07-16T05:20:46.291Z,15.88
2018-07-16T05:21:46.279Z,15.93
2018-07-16T05:22:46.469Z,15.88
2018-07-16T05:23:46.257Z,15.86
2018-07-16T05:24:46.245Z,15.78
2018-07-16T05:25:46.235Z,15.77
2018-07-16T05:26:46.222Z,15.73
2018-07-16T05:27:46.210Z,15.67
2018-07-16T05:28:46.199Z,15.71
2018-07-16T05:29:46.187Z,15.67
2018-07-16T05:30:46.176Z,15.60
2018-07-16T05:31:46.254Z,15.80
2018-07-16T05:32:46.325Z,15.73
2018-07-16T05:33:46.142Z,15.70
2018-07-16T05:34:46.329Z,15.67
2018-07-16T05:35:46.118Z,15.73
2018-07-16T05:36:46.107Z,15.77
2018-07-16T05:37:46.097Z,15.85
2018-07-16T05:38:46.084Z,15.85
2018-07-16T05:39:46.072Z,15.84
2018-07-16T05:40:46.261Z,15.85
2018-07-16T05:41:46.059Z,15.71
2018-07-16T05:42:46.037Z,15.73
2018-07-16T05:43:46.026Z,15.70
2018-07-16T05:44:46.015Z,15.66
2018-07-16T05:45:46.003Z,15.67
2018-07-16T05:46:45.991Z,15.66
2018-07-16T05:47:45.980Z,15.64
2018-07-16T05:48:45.969Z,15.66
2018-07-16T05:49:45.957Z,15.67
2018-07-16T05:50:45.945Z,15.67
2018-07-16T05:51:45.933Z,15.66
2018-07-16T05:52:45.922Z,15.62
2018-07-16T05:53:45.911Z,15.68
2018-07-16T05:54:45.898Z,15.70
2018-07-16T05:55:45.887Z,15.68
2018-07-16T05:56:45.875Z,15.67
2018-07-16T05:57:45.864Z,15.67
2018-07-16T05:58:45.852Z,15.70
2018-07-16T05:59:45.841Z,15.66
2018-07-16T06:00:45.834Z,15.76
2018-07-16T06:01:45.818Z,15.80
2018-07-16T06:02:45.806Z,15.71
2018-07-16T06:03:45.794Z,15.78
2018-07-16T06:04:45.783Z,15.67
2018-07-16T06:05:45.772Z,15.64
2018-07-16T06:06:45.760Z,15.56
2018-07-16T06:07:45.748Z,15.59
2018-07-16T06:08:45.765Z,15.56
2018-07-16T06:09:45.726Z,15.64
2018-07-16T06:10:45.714Z,15.64
2018-07-16T06:11:45.701Z,15.56
2018-07-16T06:12:45.692Z,15.58
2018-07-16T06:13:45.679Z,15.56
2018-07-16T06:14:45.669Z,15.59
2018-07-16T06:15:45.654Z,15.66
2018-07-16T06:16:45.903Z,15.56
2018-07-16T06:17:45.679Z,15.44
2018-07-16T06:18:45.619Z,15.38
2018-07-16T06:19:45.609Z,15.43
2018-07-16T06:20:45.596Z,15.46
2018-07-16T06:21:45.592Z,15.48
2018-07-16T06:22:45.574Z,15.52
2018-07-16T06:23:45.561Z,15.51
2018-07-16T06:24:45.550Z,15.51
2018-07-16T06:25:45.538Z,15.46
2018-07-16T06:26:45.525Z,15.43
2018-07-16T06:27:45.513Z,15.59
2018-07-16T06:28:45.502Z,15.52
2018-07-16T06:29:45.491Z,15.55
2018-07-16T06:30:45.479Z,15.49
2018-07-16T06:31:45.467Z,15.48
2018-07-16T06:32:45.457Z,15.44
2018-07-16T06:33:45.444Z,15.51
2018-07-16T06:34:45.431Z,15.40
2018-07-16T06:35:45.420Z,15.51
2018-07-16T06:36:45.409Z,15.46
2018-07-16T06:37:45.397Z,15.35
2018-07-16T06:38:45.384Z,15.43
2018-07-16T06:39:45.469Z,15.51
2018-07-16T06:40:45.544Z,15.44
2018-07-16T06:41:45.350Z,15.41
2018-07-16T06:42:45.337Z,15.48
2018-07-16T06:43:45.325Z,15.41
2018-07-16T06:44:45.314Z,15.49
2018-07-16T06:45:45.302Z,15.48
2018-07-16T06:46:45.289Z,15.49
2018-07-16T06:47:45.334Z,15.33
2018-07-16T06:48:45.266Z,15.27
2018-07-16T06:49:45.255Z,15.30
2018-07-16T06:50:45.244Z,15.33
2018-07-16T06:51:45.231Z,15.27
2018-07-16T06:52:45.219Z,15.28
2018-07-16T06:53:45.207Z,15.37
2018-07-16T06:54:45.195Z,15.38
2018-07-16T06:55:45.183Z,15.37
2018-07-16T06:56:45.171Z,15.40
2018-07-16T06:57:45.166Z,15.34
2018-07-16T06:58:45.147Z,15.38
2018-07-16T06:59:45.136Z,15.40
2018-07-16T07:00:45.124Z,15.38
2018-07-16T07:01:45.118Z,15.46
2018-07-16T07:02:45.100Z,15.41
2018-07-16T07:03:45.090Z,15.46
2018-07-16T07:04:45.077Z,15.37
2018-07-16T07:05:45.068Z,15.38
2018-07-16T07:06:45.052Z,15.27
2018-07-16T07:07:45.042Z,15.25
2018-07-16T07:08:45.031Z,15.27
2018-07-16T07:09:45.018Z,15.27
2018-07-16T07:10:45.006Z,15.22
2018-07-16T07:11:44.993Z,15.13
2018-07-16T07:12:44.982Z,15.16
2018-07-16T07:13:44.969Z,15.23
2018-07-16T07:14:44.957Z,15.22
2018-07-16T07:15:44.945Z,15.27
2018-07-16T07:16:45.134Z,15.28
2018-07-16T07:17:44.921Z,15.27
2018-07-16T07:18:44.909Z,15.22
2018-07-16T07:19:44.897Z,15.28
2018-07-16T07:20:44.885Z,15.34
2018-07-16T07:21:44.873Z,15.33
2018-07-16T07:22:44.861Z,15.30
2018-07-16T07:23:44.849Z,15.20
2018-07-16T07:24:44.838Z,15.15
2018-07-16T07:25:44.837Z,15.09
2018-07-16T07:26:44.813Z,15.01
2018-07-16T07:27:44.809Z,15.04
2018-07-16T07:28:44.793Z,15.03
2018-07-16T07:29:44.778Z,15.05
2018-07-16T07:30:44.766Z,15.07
2018-07-16T07:31:44.753Z,15.11
2018-07-16T07:32:44.741Z,15.07
2018-07-16T07:33:44.729Z,15.11
2018-07-16T07:34:44.916Z,15.04
2018-07-16T07:35:44.823Z,15.01
2018-07-16T07:36:44.693Z,15.07
2018-07-16T07:37:44.681Z,14.97
2018-07-16T07:38:44.668Z,15.03
2018-07-16T07:39:44.656Z,15.01
2018-07-16T07:40:44.644Z,15.01
2018-07-16T07:41:44.633Z,14.97
2018-07-16T07:42:44.620Z,15.00
2018-07-16T07:43:44.608Z,15.05
2018-07-16T07:44:44.601Z,14.95
2018-07-16T07:45:44.584Z,14.87
2018-07-16T07:46:44.772Z,14.98
2018-07-16T07:47:44.649Z,15.04
2018-07-16T07:48:44.548Z,15.05
2018-07-16T07:49:44.539Z,15.03
2018-07-16T07:50:44.526Z,15.05
2018-07-16T07:51:44.511Z,15.03
2018-07-16T07:52:44.499Z,15.03
2018-07-16T07:53:44.487Z,15.05
2018-07-16T07:54:44.600Z,15.05
2018-07-16T07:55:44.533Z,15.04
2018-07-16T07:56:44.456Z,14.98
2018-07-16T07:57:44.440Z,15.01
2018-07-16T07:58:44.625Z,15.04
2018-07-16T07:59:44.418Z,15.07
2018-07-16T08:00:44.402Z,15.07
2018-07-16T08:01:44.390Z,15.11
2018-07-16T08:02:44.380Z,15.11
2018-07-16T08:03:44.367Z,15.11
2018-07-16T08:04:44.353Z,14.86
2018-07-16T08:05:44.343Z,14.83
2018-07-16T08:06:44.329Z,14.80
2018-07-16T08:07:44.316Z,14.90
2018-07-16T08:08:44.304Z,14.95
2018-07-16T08:09:44.295Z,15.05
2018-07-16T08:10:44.481Z,15.01
2018-07-16T08:11:44.268Z,15.01
2018-07-16T08:12:44.256Z,15.00
2018-07-16T08:13:44.249Z,14.95
2018-07-16T08:14:44.233Z,14.95
2018-07-16T08:15:44.218Z,14.95
2018-07-16T08:16:44.208Z,15.00
2018-07-16T08:17:44.195Z,14.80
2018-07-16T08:18:44.182Z,14.87
2018-07-16T08:19:44.170Z,14.86
2018-07-16T08:20:44.157Z,14.97
2018-07-16T08:21:44.148Z,14.79
2018-07-16T08:22:44.333Z,14.78
2018-07-16T08:23:44.121Z,14.67
2018-07-16T08:24:44.109Z,14.71
2018-07-16T08:25:44.096Z,14.67
2018-07-16T08:26:44.084Z,14.71
2018-07-16T08:27:44.074Z,14.72
2018-07-16T08:28:44.060Z,14.74
2018-07-16T08:29:44.047Z,14.71
2018-07-16T08:30:44.035Z,14.64
2018-07-16T08:31:44.023Z,14.61
2018-07-16T08:32:44.011Z,14.64
2018-07-16T08:33:44.044Z,14.67
2018-07-16T08:34:44.185Z,14.63
2018-07-16T08:35:43.973Z,14.61
2018-07-16T08:36:43.960Z,14.61
2018-07-16T08:37:43.950Z,14.63
2018-07-16T08:38:43.936Z,14.60
2018-07-16T08:39:43.923Z,14.64
2018-07-16T08:40:44.111Z,14.60
2018-07-16T08:41:43.899Z,14.60
2018-07-16T08:42:43.886Z,14.63
2018-07-16T08:43:43.873Z,14.61
2018-07-16T08:44:43.861Z,14.61
2018-07-16T08:45:43.849Z,14.57
2018-07-16T08:46:43.836Z,14.71
2018-07-16T08:47:43.824Z,14.64
2018-07-16T08:48:43.815Z,14.75
2018-07-16T08:49:43.801Z,14.69
2018-07-16T08:50:43.787Z,14.82
2018-07-16T08:51:43.775Z,14.85
2018-07-16T08:52:43.848Z,14.87
2018-07-16T08:53:43.750Z,14.82
2018-07-16T08:54:43.736Z,14.90
2018-07-16T08:55:43.726Z,14.82
2018-07-16T08:56:43.713Z,14.80
2018-07-16T08:57:43.700Z,14.80
2018-07-16T08:58:43.687Z,14.86
2018-07-16T08:59:43.680Z,14.79
2018-07-16T09:00:43.663Z,14.83
2018-07-16T09:01:43.651Z,14.79
2018-07-16T09:02:43.638Z,14.74
2018-07-16T09:03:43.629Z,14.74
2018-07-16T09:04:43.613Z,14.82
2018-07-16T09:05:43.601Z,14.78
2018-07-16T09:06:43.588Z,14.86
2018-07-16T09:07:43.577Z,14.91
2018-07-16T09:08:43.564Z,14.97
2018-07-16T09:09:43.552Z,14.91
2018-07-16T09:10:43.539Z,15.00
2018-07-16T09:11:43.526Z,14.95
2018-07-16T09:12:43.514Z,14.85
2018-07-16T09:13:43.502Z,14.98
2018-07-16T09:14:43.488Z,14.82
2018-07-16T09:15:43.478Z,14.85
2018-07-16T09:16:43.500Z,14.90
2018-07-16T09:17:43.452Z,14.82
2018-07-16T09:18:43.439Z,14.86
2018-07-16T09:19:43.427Z,14.91
2018-07-16T09:20:43.417Z,14.90
2018-07-16T09:21:43.402Z,14.72
2018-07-16T09:22:43.390Z,14.72
2018-07-16T09:23:43.378Z,14.82
2018-07-16T09:24:43.366Z,14.80
2018-07-16T09:25:43.355Z,14.83
2018-07-16T09:26:43.340Z,14.82
2018-07-16T09:27:43.329Z,14.83
2018-07-16T09:28:43.317Z,14.83
2018-07-16T09:29:43.304Z,14.78
2018-07-16T09:30:43.291Z,14.79
2018-07-16T09:31:43.279Z,14.80
2018-07-16T09:32:43.303Z,14.80
2018-07-16T09:33:43.259Z,14.90
2018-07-16T09:34:43.242Z,14.85
2018-07-16T09:35:43.230Z,14.91
2018-07-16T09:36:43.218Z,14.95
2018-07-16T09:37:43.205Z,14.83
2018-07-16T09:38:43.193Z,14.83
2018-07-16T09:39:43.183Z,14.86
2018-07-16T09:40:43.169Z,14.94
2018-07-16T09:41:43.157Z,14.90
2018-07-16T09:42:43.144Z,14.82
2018-07-16T09:43:43.131Z,14.95
2018-07-16T09:44:43.120Z,14.90
2018-07-16T09:45:43.107Z,14.98
2018-07-16T09:46:43.094Z,14.97
2018-07-16T09:47:43.082Z,14.80
2018-07-16T09:48:43.070Z,14.82
2018-07-16T09:49:43.058Z,14.83
2018-07-16T09:50:43.047Z,14.79
2018-07-16T09:51:43.033Z,14.71
2018-07-16T09:52:43.025Z,14.74
2018-07-16T09:53:43.009Z,14.87
2018-07-16T09:54:42.996Z,14.82
2018-07-16T09:55:42.984Z,14.86
2018-07-16T09:56:42.973Z,14.80
2018-07-16T09:57:42.959Z,14.86
2018-07-16T09:58:42.946Z,14.87
2018-07-16T09:59:42.934Z,14.98
2018-07-16T10:00:42.923Z,14.91
2018-07-16T10:01:42.914Z,14.95
2018-07-16T10:02:42.898Z,14.98
2018-07-16T10:03:42.887Z,15.04
2018-07-16T10:04:43.074Z,14.95
2018-07-16T10:05:42.878Z,14.95
2018-07-16T10:06:42.848Z,14.87
2018-07-16T10:07:42.838Z,14.86
2018-07-16T10:08:42.826Z,14.93
2018-07-16T10:09:42.812Z,14.90
2018-07-16T10:10:42.801Z,14.87
2018-07-16T10:11:42.788Z,14.93
2018-07-16T10:12:42.778Z,14.85
2018-07-16T10:13:42.765Z,14.93
2018-07-16T10:14:42.751Z,14.93
2018-07-16T10:15:42.738Z,14.83
2018-07-16T10:16:42.732Z,14.80
2018-07-16T10:17:42.718Z,14.87
2018-07-16T10:18:42.704Z,14.83
2018-07-16T10:19:42.689Z,14.95
2018-07-16T10:20:42.680Z,14.91
2018-07-16T10:21:42.666Z,14.94
2018-07-16T10:22:42.654Z,15.04
2018-07-16T10:23:42.641Z,15.11
2018-07-16T10:24:42.628Z,15.07
2018-07-16T10:25:42.624Z,15.11
2018-07-16T10:26:42.604Z,15.11
2018-07-16T10:27:42.593Z,15.13
2018-07-16T10:28:42.780Z,15.15
2018-07-16T10:29:42.568Z,15.16
2018-07-16T10:30:42.555Z,15.27
2018-07-16T10:31:42.544Z,15.20
2018-07-16T10:32:42.532Z,15.28
2018-07-16T10:33:42.580Z,15.25
2018-07-16T10:34:42.507Z,15.22
2018-07-16T10:35:42.495Z,15.28
2018-07-16T10:36:42.483Z,15.20
2018-07-16T10:37:42.471Z,15.22
2018-07-16T10:38:42.464Z,15.34
2018-07-16T10:39:42.450Z,15.31
2018-07-16T10:40:42.435Z,15.20
2018-07-16T10:41:42.426Z,15.23
2018-07-16T10:42:42.411Z,15.28
2018-07-16T10:43:42.399Z,15.30
2018-07-16T10:44:42.387Z,15.25
2018-07-16T10:45:42.378Z,15.30
2018-07-16T10:46:42.615Z,15.31
2018-07-16T10:47:42.351Z,15.33
2018-07-16T10:48:42.345Z,15.37
2018-07-16T10:49:42.358Z,15.35
2018-07-16T10:50:42.315Z,15.34
2018-07-16T10:51:42.304Z,15.41
2018-07-16T10:52:42.292Z,15.40
2018-07-16T10:53:42.280Z,15.46
2018-07-16T10:54:42.268Z,15.41
2018-07-16T10:55:42.259Z,15.48
2018-07-16T10:56:42.244Z,15.49
2018-07-16T10:57:42.233Z,15.58
2018-07-16T10:58:42.221Z,15.60
2018-07-16T10:59:42.208Z,15.62
2018-07-16T11:00:42.197Z,15.64
2018-07-16T11:01:42.187Z,15.70
2018-07-16T11:02:42.173Z,15.70
2018-07-16T11:03:42.161Z,15.71
2018-07-16T11:04:42.150Z,15.77
2018-07-16T11:05:42.139Z,15.73
2018-07-16T11:06:42.126Z,15.80
2018-07-16T11:07:42.118Z,15.80
2018-07-16T11:08:42.103Z,15.86
2018-07-16T11:09:42.092Z,15.86
2018-07-16T11:10:42.080Z,15.86
2018-07-16T11:11:42.068Z,15.89
2018-07-16T11:12:42.057Z,15.86
2018-07-16T11:13:42.046Z,15.84
2018-07-16T11:14:42.034Z,15.93
2018-07-16T11:15:42.022Z,15.96
2018-07-16T11:16:42.011Z,16.04
2018-07-16T11:17:41.999Z,16.01
2018-07-16T11:18:41.988Z,15.99
2018-07-16T11:19:41.984Z,16.16
2018-07-16T11:20:41.966Z,16.10
2018-07-16T11:21:41.956Z,16.18
2018-07-16T11:22:41.942Z,16.14
2018-07-16T11:23:41.934Z,16.29
2018-07-16T11:24:41.921Z,16.26
2018-07-16T11:25:41.910Z,16.29
2018-07-16T11:26:41.899Z,16.36
2018-07-16T11:27:41.885Z,16.33
2018-07-16T11:28:41.876Z,16.42
2018-07-16T11:29:41.865Z,16.42
2018-07-16T11:30:41.851Z,16.48
2018-07-16T11:31:41.841Z,16.45
2018-07-16T11:32:41.830Z,16.45
2018-07-16T11:33:41.819Z,16.57
2018-07-16T11:34:41.807Z,16.62
2018-07-16T11:35:41.826Z,16.73
2018-07-16T11:36:41.787Z,16.82
2018-07-16T11:37:41.794Z,16.88
2018-07-16T11:38:41.788Z,17.02
2018-07-16T11:39:41.777Z,17.24
2018-07-16T11:40:41.752Z,17.27
2018-07-16T11:41:41.750Z,17.39
2018-07-16T11:42:41.721Z,17.51
2018-07-16T11:43:41.724Z,17.57
2018-07-16T11:44:41.701Z,17.71
2018-07-16T11:45:41.691Z,17.92
2018-07-16T11:46:41.679Z,18.07
2018-07-16T11:47:41.670Z,18.21
2018-07-16T11:48:41.660Z,18.35
2018-07-16T11:49:41.651Z,18.44
2018-07-16T11:50:41.641Z,18.68
2018-07-16T11:51:41.630Z,18.82
2018-07-16T11:52:41.621Z,18.89
2018-07-16T11:53:41.611Z,18.96
2018-07-16T11:54:41.602Z,19.12
2018-07-16T11:55:41.591Z,19.25
2018-07-16T11:56:41.582Z,19.35
2018-07-16T11:57:41.773Z,19.50
2018-07-16T11:58:41.564Z,19.67
2018-07-16T11:59:41.555Z,19.65
2018-07-16T12:00:41.546Z,19.76
2018-07-16T12:01:41.578Z,19.83
2018-07-16T12:02:41.529Z,19.94
2018-07-16T12:03:41.526Z,20.07
2018-07-16T12:04:41.518Z,20.12
2018-07-16T12:05:41.505Z,20.26
2018-07-16T12:06:41.492Z,20.37
2018-07-16T12:07:41.484Z,20.46
2018-07-16T12:08:41.476Z,20.57
2018-07-16T12:09:41.467Z,20.75
2018-07-16T12:10:41.458Z,20.76
2018-07-16T12:11:41.454Z,20.88
2018-07-16T12:12:41.527Z,20.93
2018-07-16T12:13:41.437Z,20.93
2018-07-16T12:14:41.427Z,21.11
2018-07-16T12:15:41.418Z,21.33
2018-07-16T12:16:41.410Z,21.19
2018-07-16T12:17:41.401Z,21.27
2018-07-16T12:18:41.392Z,21.26
2018-07-16T12:19:41.385Z,21.30
2018-07-16T12:20:41.379Z,21.27
2018-07-16T12:21:41.371Z,21.38
2018-07-16T12:22:41.361Z,21.52
2018-07-16T12:23:41.354Z,21.66
2018-07-16T12:24:41.348Z,21.61
2018-07-16T12:25:41.339Z,21.63
2018-07-16T12:26:41.333Z,21.75
2018-07-16T12:27:41.323Z,21.79
2018-07-16T12:28:41.317Z,21.93
2018-07-16T12:29:41.318Z,21.90
2018-07-16T12:30:41.301Z,21.96
2018-07-16T12:31:41.295Z,22.06
2018-07-16T12:32:41.295Z,22.26
2018-07-16T12:33:41.281Z,22.35
2018-07-16T12:34:41.272Z,22.30
2018-07-16T12:35:41.266Z,22.39
2018-07-16T12:36:41.258Z,22.49
2018-07-16T12:37:41.262Z,22.66
2018-07-16T12:38:41.246Z,22.75
2018-07-16T12:39:41.237Z,22.88
2018-07-16T12:40:41.233Z,23.09
2018-07-16T12:41:41.249Z,23.11
2018-07-16T12:42:41.217Z,23.15
2018-07-16T12:43:41.232Z,23.35
2018-07-16T12:44:41.204Z,23.38
2018-07-16T12:45:41.212Z,23.39
2018-07-16T12:46:41.198Z,23.42
2018-07-16T12:47:41.202Z,23.53
2018-07-16T12:48:41.635Z,23.60
2018-07-16T12:49:41.188Z,23.60
2018-07-16T12:50:41.178Z,23.60
2018-07-16T12:51:41.164Z,23.72
2018-07-16T12:52:41.158Z,23.72